Time;durP1;ratioP1;P1;durP2;ratioP2;P2;SDS_P1;SDS_P2;PMS_P1;PMS_P2;Temp;Humidity;BMP_temperature;BMP_pressure;BME280_temperature;BME280_humidity;BME280_pressure;Samples;Min_cycle;Max_cycle;Signal;HPM_P1;HPM_P2
2023/05/06 00:03:33;;;;;;;21.42;7.35;;;;;;;11.83;82.99;100172.09;10366017;28;20042;-69
2023/05/06 00:08:34;;;;;;;18.90;6.63;;;;;;;11.83;82.56;100164.09;10365921;28;20046;-69
2023/05/06 00:13:36;;;;;;;25.48;6.93;;;;;;;11.57;82.46;100134.41;10365879;28;20179;-69
2023/05/06 00:18:37;;;;;;;11.20;5.97;;;;;;;11.84;83.29;100184.38;10381260;28;20046;-69
2023/05/06 00:23:38;;;;;;;14.35;7.20;;;;;;;11.70;83.78;100187.03;10366054;28;20050;-69
2023/05/06 00:28:39;;;;;;;44.42;14.52;;;;;;;11.48;84.76;100180.69;10402462;28;20126;-69
2023/05/06 00:33:40;;;;;;;28.30;8.77;;;;;;;11.21;84.78;100172.25;10406225;28;20128;-69
2023/05/06 00:38:41;;;;;;;24.40;8.90;;;;;;;11.28;85.16;100191.81;10386557;28;20075;-69
2023/05/06 00:43:41;;;;;;;25.38;9.65;;;;;;;10.68;84.86;100086.22;10372312;27;20068;-69
2023/05/06 00:48:43;;;;;;;22.23;8.73;;;;;;;11.24;86.09;100187.84;10372239;28;20095;-69
2023/05/06 00:53:45;;;;;;;28.98;7.28;;;;;;;10.96;86.42;100152.97;10371099;28;20132;-69
2023/05/06 00:58:47;;;;;;;22.23;7.20;;;;;;;11.20;86.32;100186.56;10372379;28;20085;-69
2023/05/06 01:03:48;;;;;;;15.45;6.63;;;;;;;10.96;86.86;100168.91;10371428;28;20546;-69
2023/05/06 01:09:13;;;;;;;28.10;11.05;;;;;;;10.90;91.08;100167.78;10370614;28;20046;-69
2023/05/06 01:14:19;;;;;;;59.33;11.10;;;;;;;10.96;89.03;100187.53;10370869;28;20439;-69
2023/05/06 01:19:45;;;;;;;26.10;9.02;;;;;;;11.00;90.02;100174.69;10370989;28;20384;-69
2023/05/06 01:24:46;;;;;;;20.65;7.93;;;;;;;10.93;87.02;100175.41;10371348;28;20404;-69
2023/05/06 01:29:47;;;;;;;51.63;10.38;;;;;;;10.81;87.00;100174.13;10370715;28;20048;-69
2023/05/06 01:35:06;;;;;;;45.35;9.45;;;;;;;10.71;87.45;100178.84;10370711;28;20098;-69
2023/05/06 01:40:08;;;;;;;53.17;8.70;;;;;;;10.49;86.70;100164.47;10370705;28;20077;-69
2023/05/06 01:45:11;;;;;;;32.58;7.97;;;;;;;10.16;86.30;100121.25;10370499;28;20569;-69
2023/05/06 01:50:12;;;;;;;22.23;8.43;;;;;;;10.64;86.33;100199.94;10370265;28;20053;-69
2023/05/06 01:55:12;;;;;;;49.50;9.77;;;;;;;10.45;86.45;100171.97;10370006;28;20045;-69
2023/05/06 02:00:13;;;;;;;18.08;8.05;;;;;;;10.06;86.44;100098.38;10369979;28;20452;-69
2023/05/06 02:05:14;;;;;;;20.92;8.95;;;;;;;10.68;86.68;100209.25;10368934;28;20133;-69
2023/05/06 02:10:15;;;;;;;24.90;11.55;;;;;;;10.39;87.41;100183.28;10370250;28;20057;-69
2023/05/06 02:15:16;;;;;;;32.15;10.75;;;;;;;10.43;88.01;100197.84;10369217;28;20129;-69
2023/05/06 02:20:17;;;;;;;19.60;10.52;;;;;;;10.35;87.99;100142.13;10369176;28;20125;-69
2023/05/06 02:25:18;;;;;;;25.70;11.90;;;;;;;10.92;88.20;100195.03;10368583;28;20081;-69
2023/05/06 02:30:19;;;;;;;26.80;10.93;;;;;;;11.24;87.63;100195.81;10369035;28;20410;-69
2023/05/06 02:35:20;;;;;;;18.85;10.32;;;;;;;11.39;87.21;100150.69;10368623;28;20094;-69
2023/05/06 02:40:20;;;;;;;17.17;8.50;;;;;;;12.41;85.99;100216.81;10368491;28;20038;-69
2023/05/06 02:45:21;;;;;;;20.30;9.02;;;;;;;12.86;83.82;100191.78;10367619;28;20041;-69
2023/05/06 02:50:22;;;;;;;18.63;8.32;;;;;;;13.74;82.17;100216.59;10367238;28;20124;-70
2023/05/06 02:55:23;;;;;;;23.02;7.88;;;;;;;14.50;79.91;100207.88;10367445;28;20413;-69
2023/05/06 03:00:24;;;;;;;15.10;7.07;;;;;;;14.90;77.13;100150.09;10367581;28;20061;-70
2023/05/06 03:05:24;;;;;;;15.27;6.22;;;;;;;16.01;74.43;100146.13;10367213;28;20128;-69
2023/05/06 03:10:25;;;;;;;13.48;5.60;;;;;;;17.46;70.54;100203.75;10367004;28;20045;-70
2023/05/06 03:15:27;;;;;;;21.02;5.97;;;;;;;17.80;67.82;100150.66;10371695;28;20068;-70
2023/05/06 03:20:27;;;;;;;15.00;5.70;;;;;;;18.79;66.15;100213.38;10405182;28;20050;-69
2023/05/06 03:25:29;;;;;;;18.55;5.22;;;;;;;19.59;64.48;100206.91;10407160;28;20540;-69
2023/05/06 03:30:30;;;;;;;14.07;4.95;;;;;;;20.40;61.80;100209.94;10406407;28;20412;-70
2023/05/06 03:35:30;;;;;;;16.40;4.65;;;;;;;20.24;60.56;100082.00;10402148;28;20045;-70
2023/05/06 03:40:32;;;;;;;13.93;4.22;;;;;;;21.35;59.55;100206.75;10407295;28;20052;-69
2023/05/06 03:45:33;;;;;;;14.23;4.25;;;;;;;21.93;57.95;100209.38;10401350;28;20066;-70
2023/05/06 03:50:34;;;;;;;15.32;3.42;;;;;;;22.36;56.72;100208.75;10402352;28;20118;-70
2023/05/06 03:55:34;;;;;;;8.45;3.15;;;;;;;22.11;55.69;100130.72;10422156;28;20510;-70
2023/05/06 04:00:35;;;;;;;39.10;5.55;;;;;;;22.54;54.80;100138.06;10396201;28;21260;-69
2023/05/06 04:05:36;;;;;;;10.48;3.83;;;;;;;23.21;53.84;100195.72;10394138;28;20045;-69
2023/05/06 04:10:40;;;;;;;13.57;3.92;;;;;;;23.46;51.78;100146.38;10383252;28;20069;-69
2023/05/06 04:15:41;;;;;;;11.27;3.60;;;;;;;23.73;52.40;100211.44;10384554;28;20129;-69
2023/05/06 04:20:42;;;;;;;12.52;3.85;;;;;;;23.86;51.63;100216.41;10392713;28;20127;-70
2023/05/06 04:25:47;;;;;;;13.57;3.90;;;;;;;23.91;50.99;100212.94;10389155;28;20374;-70
2023/05/06 04:30:48;;;;;;;12.88;3.95;;;;;;;23.96;51.34;100221.13;10387405;28;20553;-71
2023/05/06 04:35:53;;;;;;;12.40;4.93;;;;;;;23.33;51.66;100206.41;10389126;28;20167;-70
2023/05/06 04:40:54;;;;;;;9.98;4.43;;;;;;;23.57;51.46;100218.59;10388428;28;20132;-71
2023/05/06 04:45:55;;;;;;;16.38;4.45;;;;;;;23.61;50.42;100167.38;10390376;28;20041;-71
2023/05/06 04:50:56;;;;;;;17.95;3.53;;;;;;;23.97;49.97;100211.91;10408482;28;20052;-71
2023/05/06 04:55:57;;;;;;;12.65;2.92;;;;;;;23.31;50.50;100214.81;10411089;28;20053;-70
2023/05/06 05:01:02;;;;;;;10.20;3.20;;;;;;;22.95;51.53;100206.28;10412581;28;20093;-70
2023/05/06 05:06:03;;;;;;;12.35;3.40;;;;;;;22.40;52.09;100201.75;10406413;28;20037;-70
2023/05/06 05:11:07;;;;;;;19.60;2.53;;;;;;;21.99;53.72;100192.22;10391676;28;20087;-71
2023/05/06 05:16:08;;;;;;;11.07;3.22;;;;;;;21.89;53.32;100201.78;10386373;28;20048;-70
2023/05/06 05:21:08;;;;;;;12.95;3.25;;;;;;;21.87;53.53;100203.91;10387210;28;20407;-70
2023/05/06 05:26:09;;;;;;;13.10;2.80;;;;;;;21.92;53.34;100167.19;10378849;28;20052;-68
2023/05/06 05:31:10;;;;;;;12.57;4.55;;;;;;;22.12;53.63;100199.97;10408618;28;20045;-68
2023/05/06 05:36:14;;;;;;;16.65;3.60;;;;;;;21.90;53.57;100145.81;10384082;28;20048;-69
2023/05/06 05:41:14;;;;;;;;;;;;;;;22.90;51.87;100218.91;10388001;28;20137;-68
2023/05/06 05:46:15;;;;;;;17.20;3.20;;;;;;;22.74;52.19;100210.59;10423794;27;20014;-69
2023/05/06 05:51:16;;;;;;;9.23;2.40;;;;;;;22.93;51.88;100207.56;10626363;27;20050;-69
2023/05/06 05:56:17;;;;;;;11.80;3.50;;;;;;;23.32;51.00;100212.91;10581225;27;20046;-68
2023/05/06 06:01:18;;;;;;;13.48;2.67;;;;;;;23.31;50.84;100208.56;10391026;28;20064;-69
2023/05/06 06:06:19;;;;;;;17.70;3.78;;;;;;;23.20;50.37;100132.56;10393860;28;20049;-68
2023/05/06 06:11:20;;;;;;;19.05;4.30;;;;;;;23.12;49.39;100138.44;10387363;28;20056;-68
2023/05/06 06:16:21;;;;;;;10.43;2.67;;;;;;;23.61;48.71;100194.50;10381245;28;20033;-70
2023/05/06 06:21:21;;;;;;;14.70;3.20;;;;;;;23.92;48.30;100190.97;10393749;28;20048;-69
2023/05/06 06:26:22;;;;;;;14.38;3.10;;;;;;;23.99;47.78;100177.19;10374996;28;20048;-69
2023/05/06 06:31:23;;;;;;;22.75;3.60;;;;;;;24.19;45.68;100200.91;10404223;28;20037;-70
2023/05/06 06:36:24;;;;;;;17.20;3.35;;;;;;;24.48;45.64;100211.44;10404890;28;20051;-69
2023/05/06 06:41:26;;;;;;;9.07;2.40;;;;;;;24.37;43.65;100199.66;10408457;28;20497;-70
2023/05/06 06:46:27;;;;;;;12.70;2.97;;;;;;;24.45;43.41;100206.53;10400606;28;20052;-70
2023/05/06 06:51:28;;;;;;;11.65;3.03;;;;;;;24.64;43.85;100187.88;10396008;28;20416;-70
2023/05/06 06:56:30;;;;;;;12.65;2.60;;;;;;;24.80;42.93;100203.19;10374479;28;20044;-70
2023/05/06 07:01:31;;;;;;;11.98;2.88;;;;;;;24.63;42.31;100208.00;10382830;28;20171;-70
2023/05/06 07:06:32;;;;;;;12.95;3.13;;;;;;;24.73;42.54;100191.72;10406282;28;20075;-70
2023/05/06 07:11:33;;;;;;;12.70;2.78;;;;;;;25.01;41.36;100209.50;10408272;28;20045;-68
2023/05/06 07:16:33;;;;;;;8.80;2.40;;;;;;;24.88;40.80;100189.06;10393612;28;20404;-69
2023/05/06 07:21:34;;;;;;;5.10;2.20;;;;;;;24.54;40.31;100189.47;10405138;28;20110;-70
2023/05/06 07:26:36;;;;;;;9.65;2.60;;;;;;;24.87;40.91;100192.06;10437404;27;20033;-71
2023/05/06 07:31:36;;;;;;;10.30;2.67;;;;;;;24.59;39.64;100110.75;10383456;28;20075;-71
2023/05/06 07:36:42;;;;;;;12.50;2.92;;;;;;;25.03;39.34;100113.00;10368147;28;20079;-69
2023/05/06 07:41:42;;;;;;;10.55;2.33;;;;;;;25.33;38.58;100135.91;10369951;28;20046;-71
2023/05/06 07:46:43;;;;;;;12.98;2.95;;;;;;;25.56;38.00;100136.47;10389549;28;20427;-72
2023/05/06 07:51:44;;;;;;;8.38;2.00;;;;;;;25.77;37.55;100178.91;10382310;28;20041;-70
2023/05/06 07:56:45;;;;;;;11.40;2.60;;;;;;;25.41;38.08;100110.09;10396421;28;20049;-70
2023/05/06 08:01:46;;;;;;;12.63;3.08;;;;;;;25.70;38.47;100181.91;10404335;28;20087;-70
2023/05/06 08:06:46;;;;;;;12.57;2.22;;;;;;;25.78;38.46;100185.16;10406170;28;20538;-69
2023/05/06 08:11:48;;;;;;;7.50;2.00;;;;;;;25.70;38.74;100178.38;10399315;28;20132;-70
2023/05/06 08:16:49;;;;;;;9.10;2.50;;;;;;;25.96;38.61;100180.00;10375881;28;20053;-70
2023/05/06 08:21:50;;;;;;;11.10;2.53;;;;;;;25.85;38.09;100169.41;10372119;28;20053;-70
2023/05/06 08:26:51;;;;;;;22.35;3.13;;;;;;;26.10;37.71;100172.09;10379497;28;20049;-71
2023/05/06 08:31:52;;;;;;;9.25;1.90;;;;;;;26.17;37.08;100167.19;10394384;28;20447;-68
2023/05/06 08:36:53;;;;;;;10.70;2.35;;;;;;;26.04;36.13;100147.88;10364797;28;20045;-69
2023/05/06 08:41:55;;;;;;;22.63;2.50;;;;;;;26.18;35.23;100168.00;10381732;28;20091;-69
2023/05/06 08:46:56;;;;;;;13.00;2.95;;;;;;;25.31;34.57;100080.16;10403279;28;20041;-69
2023/05/06 08:51:57;;;;;;;9.20;2.90;;;;;;;25.82;35.81;100119.06;10404898;28;20053;-69
2023/05/06 08:57:02;;;;;;;20.45;2.55;;;;;;;25.79;35.70;100097.81;10408332;28;20041;-70
2023/05/06 09:02:04;;;;;;;10.73;2.03;;;;;;;26.30;35.54;100154.91;10412993;28;20121;-69
2023/05/06 09:07:05;;;;;;;5.68;2.00;;;;;;;26.46;35.07;100141.22;10412067;28;20046;-69
2023/05/06 09:12:10;;;;;;;14.05;2.60;;;;;;;26.12;34.68;100101.84;10406420;28;20446;-68
2023/05/06 09:17:22;;;;;;;8.88;2.30;;;;;;;26.63;35.13;100158.88;10411534;28;20042;-68
2023/05/06 09:22:25;;;;;;;11.63;2.20;;;;;;;26.57;35.11;100140.94;10411753;28;20047;-69
2023/05/06 09:27:27;;;;;;;8.77;2.03;;;;;;;26.91;34.18;100159.28;10405962;28;20037;-70
2023/05/06 09:32:28;;;;;;;13.47;2.10;;;;;;;26.98;34.11;100161.69;10401626;28;20420;-70
2023/05/06 09:37:29;;;;;;;5.75;2.03;;;;;;;26.69;34.71;100086.13;10411083;28;20094;-70
2023/05/06 09:42:30;;;;;;;9.68;2.13;;;;;;;27.00;33.33;100140.44;10404122;28;20046;-69
2023/05/06 09:47:34;;;;;;;5.30;2.10;;;;;;;26.67;32.77;100066.50;10369525;28;20049;-70
2023/05/06 09:52:36;;;;;;;13.10;2.05;;;;;;;27.16;33.41;100139.25;10370014;28;20119;-70
2023/05/06 09:57:37;;;;;;;7.20;2.33;;;;;;;27.30;33.16;100142.97;10390324;28;20043;-70
2023/05/06 10:02:41;;;;;;;8.52;2.80;;;;;;;27.53;32.96;100133.25;10410969;28;20092;-71
2023/05/06 10:07:42;;;;;;;8.70;1.70;;;;;;;27.01;31.95;100134.72;10409830;28;20097;-69
2023/05/06 10:12:44;;;;;;;5.72;1.70;;;;;;;27.15;33.02;100139.53;10409543;28;20500;-71
2023/05/06 10:17:49;;;;;;;13.88;1.90;;;;;;;27.34;32.16;100129.56;10409587;28;20053;-70
2023/05/06 10:23:18;;;;;;;4.78;1.70;;;;;;;27.49;30.78;100123.19;10409742;28;20621;-69
2023/05/06 10:28:20;;;;;;;5.63;1.63;;;;;;;26.73;30.52;100059.91;10389052;28;20501;-69
2023/05/06 10:33:23;;;;;;;8.93;1.30;;;;;;;26.64;30.87;100089.66;10377401;28;20085;-70
2023/05/06 10:38:30;;;;;;;9.18;1.58;;;;;;;27.05;29.64;100126.78;10403707;28;20086;-70
2023/05/06 10:43:32;;;;;;;4.50;1.30;;;;;;;27.22;30.00;100090.94;10408725;28;20072;-70
2023/05/06 10:49:10;;;;;;;6.43;1.42;;;;;;;27.30;29.71;100112.97;10408651;28;20080;-71
2023/05/06 10:54:17;;;;;;;5.75;1.50;;;;;;;27.56;29.82;100110.03;10375254;28;20045;-70
2023/05/06 10:59:23;;;;;;;8.95;1.42;;;;;;;27.61;29.64;100096.38;10394077;28;20588;-72
2023/05/06 11:04:23;;;;;;;10.15;1.40;;;;;;;27.19;29.03;100103.25;10367970;28;20092;-69
2023/05/06 11:09:26;;;;;;;6.07;1.40;;;;;;;27.15;29.43;100076.84;10367692;28;20081;-69
2023/05/06 11:14:35;;;;;;;20.42;3.85;;;;;;;27.54;29.30;100077.56;10367940;28;20121;-70
2023/05/06 11:19:37;;;;;;;27.60;3.97;;;;;;;27.54;30.09;100090.41;10367076;28;20045;-70
2023/05/06 11:24:40;;;;;;;5.65;1.20;;;;;;;27.64;30.07;100081.31;10367267;28;20408;-70
2023/05/06 11:29:42;;;;;;;6.27;1.03;;;;;;;27.46;29.56;100083.69;10366554;28;20558;-70
2023/05/06 11:34:43;;;;;;;9.40;2.63;;;;;;;27.24;29.76;100059.56;10366876;28;20497;-70
2023/05/06 11:39:48;;;;;;;8.85;1.70;;;;;;;27.65;30.66;100089.22;10366616;28;20049;-70
2023/05/06 11:44:48;;;;;;;6.75;1.55;;;;;;;27.66;30.49;100087.28;10381841;28;20120;-70
2023/05/06 11:49:54;;;;;;;31.63;3.28;;;;;;;27.58;30.82;100080.53;10366367;28;20132;-70
2023/05/06 11:54:55;;;;;;;5.70;1.50;;;;;;;27.26;30.00;100068.28;10365866;28;20074;-70
2023/05/06 11:59:55;;;;;;;9.18;1.70;;;;;;;27.25;30.09;100058.50;10366150;28;20106;-70
2023/05/06 12:04:57;;;;;;;6.68;2.08;;;;;;;27.37;30.66;100060.00;10380981;28;20170;-70
2023/05/06 12:10:02;;;;;;;8.18;1.50;;;;;;;27.22;30.58;100047.31;10365368;28;20045;-69
2023/05/06 12:15:03;;;;;;;11.35;1.55;;;;;;;26.72;31.45;100063.75;10366542;28;20108;-70
2023/05/06 12:20:04;;;;;;;12.00;1.80;;;;;;;26.60;31.19;100069.53;10365163;28;20461;-70
2023/05/06 12:25:13;;;;;;;7.90;1.60;;;;;;;26.59;31.71;100064.34;10365381;28;20111;-70
2023/05/06 12:30:14;;;;;;;11.35;1.67;;;;;;;26.79;31.68;100063.44;10365481;28;20040;-70
2023/05/06 12:35:30;;;;;;;7.70;1.65;;;;;;;25.94;31.71;99918.22;10372048;28;20052;-70
2023/05/06 12:40:31;;;;;;;12.10;1.60;;;;;;;26.74;31.93;100039.75;10372247;28;20133;-70
2023/05/06 12:45:32;;;;;;;4.03;1.40;;;;;;;26.25;32.74;99999.69;10372472;28;20129;-69
2023/05/06 12:50:39;;;;;;;3.00;1.10;;;;;;;26.33;33.16;100056.31;10402301;28;20073;-70
2023/05/06 12:55:45;;;;;;;6.00;1.60;;;;;;;26.29;33.84;100041.59;10409599;28;20509;-70
2023/05/06 13:00:46;;;;;;;6.55;1.58;;;;;;;26.24;34.37;100035.38;10393967;28;20097;-69
2023/05/06 13:05:48;;;;;;;4.07;1.52;;;;;;;26.10;33.77;100005.22;10402720;28;20510;-70
2023/05/06 13:10:49;;;;;;;13.77;2.10;;;;;;;26.08;34.69;100064.56;10400972;28;20067;-71
2023/05/06 13:15:52;;;;;;;11.30;1.98;;;;;;;25.93;34.69;100060.78;10371218;28;20509;-70
2023/05/06 13:20:53;;;;;;;6.57;1.60;;;;;;;25.70;34.13;100058.66;10380711;28;20054;-70
2023/05/06 13:25:54;;;;;;;6.45;1.60;;;;;;;25.62;34.61;100070.91;10410200;28;20579;-71
2023/05/06 13:30:54;;;;;;;6.18;1.30;;;;;;;25.54;34.89;100081.53;10372080;28;20140;-71
2023/05/06 13:35:55;;;;;;;31.95;3.20;;;;;;;25.00;35.45;100004.84;10400772;28;20094;-72
2023/05/06 13:40:56;;;;;;;5.43;1.45;;;;;;;25.65;35.83;100094.84;10396919;28;20049;-68
2023/05/06 13:45:57;;;;;;;5.43;1.50;;;;;;;25.68;35.30;100088.03;10401708;28;20038;-70
2023/05/06 13:50:57;;;;;;;24.13;2.65;;;;;;;25.96;35.35;100082.00;10410267;28;20037;-70
2023/05/06 13:55:58;;;;;;;30.92;1.75;;;;;;;25.58;35.14;100020.88;10395298;28;20123;-70
2023/05/06 14:00:59;;;;;;;9.20;2.00;;;;;;;26.26;34.96;100088.44;10393331;28;20508;-71
2023/05/06 14:06:00;;;;;;;13.48;1.60;;;;;;;26.34;34.74;100079.72;10389406;28;20042;-70
2023/05/06 14:11:01;;;;;;;5.70;1.23;;;;;;;26.19;34.96;100082.50;10388206;28;20037;-72
2023/05/06 14:16:02;;;;;;;5.68;1.63;;;;;;;25.90;34.99;100057.81;10394678;28;20439;-69
2023/05/06 14:21:02;;;;;;;5.68;1.33;;;;;;;25.80;35.25;100071.44;10392414;28;20075;-71
2023/05/06 14:26:03;;;;;;;26.75;2.85;;;;;;;25.60;35.94;100059.47;10400333;28;20060;-69
2023/05/06 14:31:04;;;;;;;5.88;1.65;;;;;;;25.43;35.85;100054.34;10392298;28;20049;-70
2023/05/06 14:36:05;;;;;;;5.55;1.40;;;;;;;25.20;36.18;100068.50;10400991;28;20045;-69
2023/05/06 14:41:06;;;;;;;12.57;1.95;;;;;;;25.19;37.02;100069.59;10395343;28;20041;-70
2023/05/06 14:46:07;;;;;;;4.70;1.88;;;;;;;24.59;36.96;99990.44;10403389;28;20037;-69
2023/05/06 14:51:08;;;;;;;6.82;1.67;;;;;;;24.73;37.35;100021.41;10407246;28;20430;-69
2023/05/06 14:56:09;;;;;;;8.82;1.50;;;;;;;24.32;37.72;99999.59;10404489;28;20045;-68
2023/05/06 15:01:10;;;;;;;10.25;2.47;;;;;;;24.07;38.21;99983.22;10399302;28;20065;-70
2023/05/06 15:06:11;;;;;;;37.70;2.92;;;;;;;24.33;38.33;100065.56;10404172;28;20045;-69
2023/05/06 15:11:12;;;;;;;22.85;1.67;;;;;;;24.07;38.85;100065.44;10407825;28;20045;-71
2023/05/06 15:16:13;;;;;;;9.73;2.28;;;;;;;23.51;39.40;100004.59;10401436;28;20037;-70
2023/05/06 15:21:14;;;;;;;16.90;2.10;;;;;;;23.64;39.75;100055.69;10403148;28;20094;-70
2023/05/06 15:26:15;;;;;;;40.65;2.80;;;;;;;23.48;39.81;100057.44;10406482;28;20049;-69
2023/05/06 15:31:16;;;;;;;21.52;3.15;;;;;;;23.42;40.35;100072.88;10405023;28;20037;-70
2023/05/06 15:36:17;;;;;;;16.45;2.35;;;;;;;23.28;40.68;100079.00;10401507;28;20065;-70
2023/05/06 15:41:18;;;;;;;8.20;2.10;;;;;;;23.06;41.06;100076.34;10383709;28;20094;-70
2023/05/06 15:46:19;;;;;;;25.38;2.90;;;;;;;22.91;41.29;100079.69;10384011;28;20041;-69
2023/05/06 15:51:20;;;;;;;8.57;1.70;;;;;;;22.68;41.52;100070.00;10404437;28;20438;-69
2023/05/06 15:56:21;;;;;;;14.90;1.80;;;;;;;21.89;42.10;99982.72;10394992;28;20091;-69
2023/05/06 16:01:22;;;;;;;10.23;2.05;;;;;;;22.32;42.36;100081.22;10379968;28;20554;-70
2023/05/06 16:06:23;;;;;;;11.23;1.90;;;;;;;21.53;42.43;99977.94;10373936;28;20036;-69
2023/05/06 16:11:24;;;;;;;56.58;32.35;;;;;;;21.94;43.01;100073.94;10413408;28;20092;-69
2023/05/06 16:16:25;;;;;;;121.97;42.80;;;;;;;21.22;43.43;99999.06;10414040;28;20593;-69
2023/05/06 16:21:26;;;;;;;137.30;60.22;;;;;;;21.50;43.96;100081.94;10410963;27;20058;-70
2023/05/06 16:26:26;;;;;;;154.45;73.72;;;;;;;21.35;44.20;100082.47;10371215;28;20470;-69
2023/05/06 16:31:27;;;;;;;120.95;54.70;;;;;;;21.13;44.56;100071.59;10386779;28;20050;-69
2023/05/06 16:36:28;;;;;;;88.60;41.50;;;;;;;20.60;44.83;100005.31;10381265;28;20053;-72
2023/05/06 16:41:29;;;;;;;114.22;48.80;;;;;;;21.02;45.10;100085.16;10393350;28;20140;-70
2023/05/06 16:46:30;;;;;;;89.65;43.42;;;;;;;20.87;45.35;100086.50;10400064;28;20053;-71
2023/05/06 16:51:31;;;;;;;63.33;30.13;;;;;;;20.78;45.69;100101.47;10385674;28;20037;-71
2023/05/06 16:56:31;;;;;;;40.95;19.33;;;;;;;20.59;45.98;100084.63;10393760;28;20041;-71
2023/05/06 17:01:32;;;;;;;21.30;9.55;;;;;;;20.54;46.26;100100.72;10383914;28;20062;-71
2023/05/06 17:06:33;;;;;;;13.68;3.65;;;;;;;20.29;46.33;100082.13;10394284;28;20073;-72
2023/05/06 17:11:34;;;;;;;10.07;2.30;;;;;;;20.31;46.55;100104.25;10386797;28;20124;-71
2023/05/06 17:16:35;;;;;;;9.75;1.70;;;;;;;20.11;46.80;100091.19;10382546;28;20100;-72
2023/05/06 17:21:35;;;;;;;10.48;2.83;;;;;;;19.88;46.94;100091.22;10393257;28;20056;-71
2023/05/06 17:26:39;;;;;;;6.53;2.10;;;;;;;19.86;47.52;100109.47;10392939;28;20552;-71
2023/05/06 17:31:39;;;;;;;10.80;1.93;;;;;;;19.81;47.72;100107.50;10387217;28;20118;-71
2023/05/06 17:36:40;;;;;;;9.63;1.73;;;;;;;19.67;48.47;100115.00;10396894;28;20138;-71
2023/05/06 17:41:41;;;;;;;12.15;1.90;;;;;;;19.57;48.66;100131.72;10391584;28;20050;-70
2023/05/06 17:46:44;;;;;;;9.20;1.75;;;;;;;19.45;49.09;100130.06;10394077;28;20103;-69
2023/05/06 17:51:45;;;;;;;11.93;2.73;;;;;;;18.77;49.60;100037.03;10392499;28;20071;-70
2023/05/06 17:56:49;;;;;;;7.60;2.10;;;;;;;19.21;49.70;100134.56;10398726;28;20042;-70
2023/05/06 18:01:50;;;;;;;19.00;7.13;;;;;;;19.16;50.55;100148.69;10398186;28;20090;-70
2023/05/06 18:06:50;;;;;;;23.40;6.97;;;;;;;19.10;50.82;100157.69;10384720;28;20075;-70
2023/05/06 18:11:51;;;;;;;22.10;7.80;;;;;;;19.05;51.49;100168.31;10380493;28;20417;-70
2023/05/06 18:16:52;;;;;;;18.20;6.38;;;;;;;18.85;52.10;100147.88;10397846;28;20041;-70
2023/05/06 18:21:53;;;;;;;16.63;5.25;;;;;;;18.93;52.50;100160.19;10388668;28;20065;-70
2023/05/06 18:26:53;;;;;;;20.60;7.35;;;;;;;18.45;52.82;100086.47;10391335;28;20408;-70
2023/05/06 18:31:54;;;;;;;20.73;6.72;;;;;;;18.87;53.33;100169.19;10406274;28;20080;-71
2023/05/06 18:36:56;;;;;;;19.98;6.10;;;;;;;18.93;53.28;100182.56;10403125;28;20045;-72
2023/05/06 18:41:58;;;;;;;17.88;4.25;;;;;;;18.81;54.11;100170.09;10404623;28;20055;-72
2023/05/06 18:46:58;;;;;;;19.55;4.32;;;;;;;18.79;54.44;100186.47;10407638;28;20449;-72
2023/05/06 18:51:59;;;;;;;13.05;2.83;;;;;;;18.69;54.93;100178.06;10398536;28;20140;-70
2023/05/06 18:57:01;;;;;;;11.23;2.13;;;;;;;18.54;55.01;100165.00;10408993;28;20091;-71
2023/05/06 19:02:01;;;;;;;9.02;2.25;;;;;;;18.54;55.29;100172.25;10409057;28;20061;-70
2023/05/06 19:07:02;;;;;;;12.80;2.63;;;;;;;18.52;55.58;100185.06;10402261;28;20408;-69
2023/05/06 19:12:03;;;;;;;18.25;2.88;;;;;;;18.40;55.58;100176.97;10406370;28;20041;-70
2023/05/06 19:17:04;;;;;;;18.33;2.60;;;;;;;18.40;55.96;100168.91;10403224;28;20049;-69
2023/05/06 19:22:05;;;;;;;12.43;1.98;;;;;;;18.11;56.56;100138.16;10407424;28;20046;-70
2023/05/06 19:27:05;;;;;;;19.80;2.05;;;;;;;17.28;56.71;100029.97;10407684;28;20085;-70
2023/05/06 19:32:07;;;;;;;9.07;2.03;;;;;;;17.54;57.13;100093.38;10407378;28;20524;-70
2023/05/06 19:37:08;;;;;;;11.27;2.15;;;;;;;17.86;57.47;100165.91;10407770;28;20037;-70
2023/05/06 19:42:09;;;;;;;10.80;2.13;;;;;;;17.86;57.68;100176.66;10406655;28;20049;-70
2023/05/06 19:47:11;;;;;;;9.40;1.67;;;;;;;17.73;57.72;100180.22;10407021;28;20128;-71
2023/05/06 19:52:12;;;;;;;6.13;1.50;;;;;;;17.65;58.15;100174.28;10407814;28;20065;-70
2023/05/06 19:57:12;;;;;;;5.18;1.50;;;;;;;17.45;58.03;100151.09;10407577;28;20052;-70
2023/05/06 20:02:15;;;;;;;7.75;1.58;;;;;;;17.37;58.54;100177.38;10407538;28;20061;-70
2023/05/06 20:07:17;;;;;;;;;;;;;;;17.55;56.66;100182.84;10406766;28;20106;-70
2023/05/06 20:12:18;;;;;;;12.68;1.73;;;;;;;17.08;58.63;100142.88;10407370;28;20009;-70
2023/05/06 20:17:20;;;;;;;6.93;1.98;;;;;;;17.25;59.02;100194.19;10406021;28;20046;-70
2023/05/06 20:22:21;;;;;;;8.90;1.75;;;;;;;17.13;59.54;100192.41;10405818;28;20511;-70
2023/05/06 20:27:21;;;;;;;12.35;1.70;;;;;;;16.52;59.75;100103.31;10405878;28;20049;-70
2023/05/06 20:32:22;;;;;;;11.88;1.90;;;;;;;16.97;60.29;100183.00;10406239;28;20041;-70
2023/05/06 20:37:24;;;;;;;10.13;1.77;;;;;;;16.37;60.21;100102.75;10406318;28;20120;-70
2023/05/06 20:42:25;;;;;;;6.53;1.48;;;;;;;16.72;60.50;100167.59;10405998;28;20049;-70
2023/05/06 20:47:26;;;;;;;13.30;1.92;;;;;;;16.39;60.67;100125.63;10406083;28;20053;-70
2023/05/06 20:52:27;;;;;;;13.93;1.50;;;;;;;16.78;60.82;100198.97;10407657;28;20072;-69
2023/05/06 20:57:27;;;;;;;9.63;1.52;;;;;;;16.74;61.12;100196.88;10413403;28;20523;-69
2023/05/06 21:02:30;;;;;;;5.32;1.45;;;;;;;16.72;61.29;100191.72;10413094;28;20068;-71
2023/05/06 21:07:31;;;;;;;9.13;1.80;;;;;;;16.69;61.26;100192.13;10412364;28;20037;-70
2023/05/06 21:12:32;;;;;;;8.40;1.58;;;;;;;16.56;61.50;100166.19;10396430;28;20045;-69
2023/05/06 21:17:33;;;;;;;6.43;1.30;;;;;;;16.58;61.73;100169.50;10371825;28;20038;-68
2023/05/06 21:22:34;;;;;;;7.32;1.42;;;;;;;16.63;61.85;100175.06;10385664;28;20046;-69
2023/05/06 21:27:35;;;;;;;7.15;1.60;;;;;;;16.42;62.08;100156.53;10438633;27;20041;-69
2023/05/06 21:32:35;;;;;;;18.95;1.38;;;;;;;16.37;62.51;100157.19;10627716;27;20051;-69
2023/05/06 21:37:36;;;;;;;6.45;1.45;;;;;;;16.12;62.75;100130.25;10627743;27;20043;-69
2023/05/06 21:42:37;;;;;;;6.38;1.50;;;;;;;16.35;63.15;100161.09;10627074;27;20054;-69
2023/05/06 21:47:38;;;;;;;8.23;1.50;;;;;;;15.79;63.38;100086.59;10626404;27;20077;-69
2023/05/06 21:52:38;;;;;;;13.80;1.70;;;;;;;16.22;63.82;100159.28;10626588;27;20380;-69
2023/05/06 21:57:39;;;;;;;7.78;1.50;;;;;;;16.04;64.13;100161.78;10626245;27;20043;-69
2023/05/06 22:02:40;;;;;;;8.13;2.00;;;;;;;15.57;64.48;100092.16;10625695;27;20065;-71
2023/05/06 22:07:41;;;;;;;7.43;1.52;;;;;;;15.85;64.73;100147.34;10625575;27;20039;-71
2023/05/06 22:12:42;;;;;;;4.50;1.33;;;;;;;15.70;65.08;100132.34;10626276;27;20045;-71
2023/05/06 22:17:42;;;;;;;9.20;1.67;;;;;;;15.18;65.52;100068.88;10626309;27;20511;-71
2023/05/06 22:22:43;;;;;;;8.35;1.45;;;;;;;15.32;66.60;100134.78;10625562;27;20041;-71
2023/05/06 22:27:44;;;;;;;8.27;1.42;;;;;;;15.21;67.30;100148.75;10625320;27;20122;-72
2023/05/06 22:32:45;;;;;;;11.98;1.85;;;;;;;15.09;67.84;100155.72;10624544;27;20066;-72
2023/05/06 22:37:46;;;;;;;11.32;1.92;;;;;;;14.88;68.46;100135.28;10517733;27;20042;-72
2023/05/06 22:42:47;;;;;;;8.02;1.80;;;;;;;14.63;68.29;100097.53;10368533;28;20042;-72
2023/05/06 22:47:47;;;;;;;6.40;1.50;;;;;;;14.85;68.24;100147.19;10368505;28;20458;-71
2023/05/06 22:52:48;;;;;;;8.15;1.80;;;;;;;14.59;68.52;100123.84;10490511;27;20077;-71
2023/05/06 22:57:49;;;;;;;9.10;1.67;;;;;;;14.95;68.43;100185.09;10623709;27;20047;-71